Estación de Peumo Norte

Ultimos registro cada 15 minutos 59
Estación Fecha / Hora Temperatura Humedad Lluvia Velocidad Dirección Radiación Presion
59 Peumo Norte 02-05-2026 14:30 23,2 50,7 0 0,5 157 391,9 999,4
58 Peumo Norte 02-05-2026 14:15 22,6 53,7 0 1 111 411,9 999,5
57 Peumo Norte 02-05-2026 14:00 22,3 54,4 0 0,5 110 433,1 999,6
56 Peumo Norte 02-05-2026 13:45 21,5 57,6 0 1 131 443,1 999,9
55 Peumo Norte 02-05-2026 13:30 21,1 59 0 0,5 156 460,6 1000,1
54 Peumo Norte 02-05-2026 13:15 20,2 62,8 0 1 104 468,1 1000,2
53 Peumo Norte 02-05-2026 13:00 20,4 63,6 0 1 117 476,9 1000,6
52 Peumo Norte 02-05-2026 12:45 20,1 63,6 0 0,5 135 481,9 1000,7
51 Peumo Norte 02-05-2026 12:30 19,1 66,1 0 0,5 143 481,9 1000,9
50 Peumo Norte 02-05-2026 12:15 18,8 67,2 0 1 143 483,1 1001,2
49 Peumo Norte 02-05-2026 12:00 18,2 68,4 0 1 156 476,9 1001,5
48 Peumo Norte 02-05-2026 11:45 17,3 72,8 0 1 150 473,1 1001,6
47 Peumo Norte 02-05-2026 11:30 16,9 75,3 0 1 114 464,4 1001,7
46 Peumo Norte 02-05-2026 11:15 16,6 76,2 0 0,5 124 450,6 1001,9
45 Peumo Norte 02-05-2026 11:00 15,5 79,7 0 1 153 434,4 1002,2
44 Peumo Norte 02-05-2026 10:45 14,5 80 0 0,5 147 414,4 1002,2
43 Peumo Norte 02-05-2026 10:30 14,2 82 0 0,5 135 394,4 1002,5
42 Peumo Norte 02-05-2026 10:15 14 85 0 0,5 149 373,1 1002,8
41 Peumo Norte 02-05-2026 10:00 13,4 87,7 0 0,5 140 348,1 1002,9
40 Peumo Norte 02-05-2026 09:45 12,9 90,3 0 0,5 124 318,1 1003,1
39 Peumo Norte 02-05-2026 09:30 11,9 92 0 0 150 269,4 1003,2
38 Peumo Norte 02-05-2026 09:15 11,2 93,6 0 0,5 108 251,9 1003,2
37 Peumo Norte 02-05-2026 09:00 11,2 95 0 0 145 213,1 1003,1
36 Peumo Norte 02-05-2026 08:45 10,4 95,3 0 0 146 169,4 1003,1
35 Peumo Norte 02-05-2026 08:30 9,6 95,7 0 0 117 134,4 1003,4
34 Peumo Norte 02-05-2026 08:15 8,4 96,2 0 0 122 98,1 1003,4
33 Peumo Norte 02-05-2026 08:00 7,2 95,8 0 0 122 9,4 1003,4
32 Peumo Norte 02-05-2026 07:45 6,6 95,3 0 0 122 5,6 1003,4
31 Peumo Norte 02-05-2026 07:30 7 95,1 0 0 122 3,1 1003,3
30 Peumo Norte 02-05-2026 07:15 7,5 95,2 0 0 124 0,6 1003,3
29 Peumo Norte 02-05-2026 07:00 8 95,3 0 0 122 0,6 1003,1
28 Peumo Norte 02-05-2026 06:45 7,9 95 0 0 129 0,6 1003
27 Peumo Norte 02-05-2026 06:30 8,3 94,8 0 0 160 0,6 1003,2
26 Peumo Norte 02-05-2026 06:15 8,6 94,7 0 0 140 0,6 1003,4
25 Peumo Norte 02-05-2026 06:00 8,5 94,4 0 0 152 0,6 1003,4
24 Peumo Norte 02-05-2026 05:45 7,6 94,2 0 0 156 0,6 1003,5
23 Peumo Norte 02-05-2026 05:30 7,4 93,4 0 0 178 0,6 1003,4
22 Peumo Norte 02-05-2026 05:15 8,2 93 0 0 178 0,6 1003,2
21 Peumo Norte 02-05-2026 05:00 8,8 93,2 0 0 174 0,6 1003,5
20 Peumo Norte 02-05-2026 04:45 9,5 93 0 0 147 0,6 1003,4
19 Peumo Norte 02-05-2026 04:30 9,8 92,5 0 0 149 0,6 1003,6
18 Peumo Norte 02-05-2026 04:15 10,6 92 0 0 149 0,6 1003,6
17 Peumo Norte 02-05-2026 04:00 10,6 92,4 0 0 124 0,6 1003,7
16 Peumo Norte 02-05-2026 03:45 11,1 92,6 0 0 156 0,6 1003,8
15 Peumo Norte 02-05-2026 03:30 11 93,1 0 0 115 0,6 1003,8
14 Peumo Norte 02-05-2026 03:15 10,7 93,2 0 0 95 0,6 1003,8
13 Peumo Norte 02-05-2026 03:00 10,9 93,5 0 0 121 0,6 1004,1
12 Peumo Norte 02-05-2026 02:45 10,8 93,8 0 0 107 0,6 1004,2
11 Peumo Norte 02-05-2026 02:30 10,9 94,3 0 0 84 0,6 1004,4
10 Peumo Norte 02-05-2026 02:15 9,1 92,8 0 0 98 0,6 1004,6
9 Peumo Norte 02-05-2026 02:00 9,8 93,7 0 0 62 0,6 1004,7
8 Peumo Norte 02-05-2026 01:45 10,2 93,2 0 0 81 0,6 1004,9
7 Peumo Norte 02-05-2026 01:30 10,9 93,6 0 0 81 0,6 1004,9
6 Peumo Norte 02-05-2026 01:15 9,4 91,9 0 0 80 0,6 1005,2
5 Peumo Norte 02-05-2026 01:00 10,3 91,7 0 0 97 0,6 1005,5
4 Peumo Norte 02-05-2026 00:45 11,1 91,3 0 0 110 0,6 1005,6
3 Peumo Norte 02-05-2026 00:30 11,5 90,9 0 0 122 0,6 1005,8
2 Peumo Norte 02-05-2026 00:15 11,4 90,5 0 0 112 0,6 1006
1 Peumo Norte 02-05-2026 00:00 11,6 90,2 0 0 91 0,6 1006,1